Time;durP1;ratioP1;P1;durP2;ratioP2;P2;SDS_P1;SDS_P2;PMS_P1;PMS_P2;Temp;Humidity;BMP_temperature;BMP_pressure;BME280_temperature;BME280_humidity;BME280_pressure;Samples;Min_cycle;Max_cycle;Signal;HPM_P1;HPM_P2
2022/03/26 00:01:35;;;;;;;12.20;7.00;;;;;;;20.78;41.95;103065.84;5052542;28;20105;-76
2022/03/26 00:04:01;;;;;;;11.90;7.40;;;;;;;20.75;41.97;103063.38;5052142;28;20025;-77
2022/03/26 00:06:26;;;;;;;12.13;7.17;;;;;;;20.71;42.12;103061.81;5053186;28;20278;-76
2022/03/26 00:08:51;;;;;;;12.45;7.75;;;;;;;20.69;42.18;103064.56;5052513;28;20025;-76
2022/03/26 00:11:16;;;;;;;9.27;6.80;;;;;;;20.67;42.05;103055.84;5052034;28;20024;-77
2022/03/26 00:13:42;;;;;;;10.97;7.20;;;;;;;20.65;41.96;103063.88;5052376;28;20776;-77
2022/03/26 00:16:07;;;;;;;9.55;6.45;;;;;;;20.61;42.02;103059.66;5052677;28;20316;-77
2022/03/26 00:18:33;;;;;;;13.95;7.30;;;;;;;20.60;42.24;103062.41;5051887;28;20448;-77
2022/03/26 00:20:58;;;;;;;10.00;6.97;;;;;;;20.57;41.97;103059.91;5052601;28;20029;-78
2022/03/26 00:23:23;;;;;;;10.63;6.88;;;;;;;20.56;42.10;103052.94;5052708;28;20028;-78
2022/03/26 00:25:49;;;;;;;10.60;7.27;;;;;;;20.54;42.09;103049.53;5051523;28;20021;-78
2022/03/26 00:28:14;;;;;;;11.60;7.53;;;;;;;20.53;42.03;103058.41;5054313;28;20021;-77
2022/03/26 00:30:39;;;;;;;13.88;7.35;;;;;;;20.52;42.12;103056.69;5056476;28;20366;-77
2022/03/26 00:33:05;;;;;;;10.23;7.13;;;;;;;20.50;42.14;103050.63;5056020;28;20024;-78
2022/03/26 00:35:30;;;;;;;12.60;7.13;;;;;;;20.47;41.94;103052.53;5056992;28;20464;-78
2022/03/26 00:37:55;;;;;;;10.68;7.60;;;;;;;20.46;41.88;103050.81;5056632;28;20021;-78
2022/03/26 00:40:21;;;;;;;10.38;7.20;;;;;;;20.47;42.08;103052.53;5056047;28;20071;-78
2022/03/26 00:42:46;;;;;;;10.65;6.97;;;;;;;20.48;41.94;103053.38;5056309;28;20051;-76
2022/03/26 00:45:11;;;;;;;11.05;7.13;;;;;;;20.45;42.03;103050.88;5056552;28;20082;-77
2022/03/26 00:47:37;;;;;;;11.45;6.55;;;;;;;20.42;41.77;103049.25;5055397;28;20116;-77
2022/03/26 00:50:03;;;;;;;11.82;7.47;;;;;;;20.42;41.89;103054.56;5056927;28;20036;-77
2022/03/26 00:52:28;;;;;;;12.30;7.10;;;;;;;20.41;41.99;103057.28;5056336;28;20171;-77
2022/03/26 00:54:54;;;;;;;12.13;6.85;;;;;;;20.37;42.01;103051.31;5055432;28;20103;-77
2022/03/26 00:57:19;;;;;;;12.38;7.18;;;;;;;20.35;42.01;103053.22;5056436;28;20025;-77
2022/03/26 00:59:45;;;;;;;14.97;7.23;;;;;;;20.35;41.92;103055.84;5056002;28;20029;-76
2022/03/26 01:02:10;;;;;;;11.60;7.68;;;;;;;20.34;42.23;103053.28;5055265;28;20293;-77
2022/03/26 01:04:36;;;;;;;11.88;6.60;;;;;;;20.32;42.10;103052.53;5056091;28;20028;-77
2022/03/26 01:07:01;;;;;;;12.45;7.40;;;;;;;20.30;42.11;103050.81;5055724;28;20045;-77
2022/03/26 01:09:26;;;;;;;9.60;6.43;;;;;;;20.29;42.16;103049.09;5055950;28;20024;-77
2022/03/26 01:11:52;;;;;;;10.98;6.78;;;;;;;20.27;42.02;103044.84;5055618;28;20048;-77
2022/03/26 01:14:17;;;;;;;10.50;6.77;;;;;;;20.23;42.21;103044.13;5055081;28;20048;-78
2022/03/26 01:16:42;;;;;;;11.93;6.88;;;;;;;20.19;42.30;103041.78;5055741;28;20704;-77
2022/03/26 01:19:08;;;;;;;9.02;6.35;;;;;;;20.21;42.08;103042.53;5056086;28;20350;-77
2022/03/26 01:21:33;;;;;;;10.23;7.22;;;;;;;20.20;42.07;103040.81;5055195;28;20048;-77
2022/03/26 01:23:58;;;;;;;11.02;6.97;;;;;;;20.15;42.11;103035.78;5056074;28;20384;-77
2022/03/26 01:26:24;;;;;;;11.07;7.20;;;;;;;20.17;42.19;103038.34;5055930;28;20464;-77
2022/03/26 01:28:49;;;;;;;11.27;7.05;;;;;;;20.14;42.29;103035.84;5054713;28;20670;-77
2022/03/26 01:31:19;;;;;;;11.02;6.88;;;;;;;20.14;42.13;103039.38;5055667;28;20041;-77
2022/03/26 01:33:45;;;;;;;11.05;7.10;;;;;;;20.08;42.19;103031.78;5055573;28;20021;-77
2022/03/26 01:36:11;;;;;;;10.00;6.97;;;;;;;20.10;42.02;103037.81;5055011;28;20029;-77
2022/03/26 01:38:36;;;;;;;11.07;6.77;;;;;;;20.10;42.13;103030.72;5055240;28;20062;-77
2022/03/26 01:41:01;;;;;;;11.10;7.37;;;;;;;20.08;42.27;103037.91;5054304;28;20428;-77
2022/03/26 01:43:26;;;;;;;10.87;6.80;;;;;;;20.07;42.29;103036.19;5054699;28;20277;-77
2022/03/26 01:45:52;;;;;;;12.50;6.67;;;;;;;20.05;42.25;103042.53;5055185;28;20628;-77
2022/03/26 01:48:17;;;;;;;11.30;6.97;;;;;;;20.04;42.42;103038.16;5055265;28;20363;-77
2022/03/26 01:50:42;;;;;;;11.82;7.70;;;;;;;20.02;42.37;103038.25;5054527;28;20020;-77
2022/03/26 01:53:08;;;;;;;10.73;6.88;;;;;;;20.02;42.26;103045.34;5055467;28;20481;-78
2022/03/26 01:55:34;;;;;;;10.38;6.65;;;;;;;20.00;42.11;103048.06;5055041;28;20013;-77
2022/03/26 01:57:59;;;;;;;12.02;7.25;;;;;;;19.98;42.35;103046.44;5054877;28;20021;-77
2022/03/26 02:00:25;;;;;;;10.23;6.50;;;;;;;19.97;42.52;103045.59;5055073;28;20465;-77
2022/03/26 02:02:50;;;;;;;11.98;7.03;;;;;;;19.96;42.40;103051.81;5054638;28;20029;-77
2022/03/26 02:05:18;;;;;;;10.10;6.78;;;;;;;19.97;42.34;103044.75;5054493;28;20100;-77
2022/03/26 02:07:46;;;;;;;11.05;6.53;;;;;;;19.95;42.34;103039.53;5054733;28;20483;-77
2022/03/26 02:10:13;;;;;;;11.75;7.13;;;;;;;19.94;42.56;103043.09;5055070;28;20029;-77
2022/03/26 02:12:40;;;;;;;10.40;6.97;;;;;;;19.92;42.48;103040.53;5053694;28;20451;-76
2022/03/26 02:15:06;;;;;;;11.00;7.25;;;;;;;19.91;42.52;103044.13;5054993;28;20025;-77
2022/03/26 02:17:36;;;;;;;12.25;7.75;;;;;;;19.88;42.21;103041.63;5054421;28;20075;-77
2022/03/26 02:20:04;;;;;;;13.50;7.18;;;;;;;19.91;42.38;103043.28;5055174;28;20020;-77
2022/03/26 02:22:30;;;;;;;9.27;6.65;;;;;;;19.90;42.29;103042.44;5055169;28;20377;-78
2022/03/26 02:24:56;;;;;;;13.25;7.38;;;;;;;19.89;42.57;103039.88;5056701;28;20025;-77
2022/03/26 02:27:23;;;;;;;11.75;7.65;;;;;;;19.86;42.43;103040.03;5054896;28;20021;-77
2022/03/26 02:29:51;;;;;;;10.00;6.68;;;;;;;19.85;42.65;103049.78;5054182;28;20021;-77
2022/03/26 02:32:25;;;;;;;12.15;7.22;;;;;;;19.84;42.22;103031.34;5054008;28;20047;-77
2022/03/26 02:34:51;;;;;;;11.30;7.45;;;;;;;19.83;42.35;103033.09;5054264;28;20540;-77
2022/03/26 02:37:17;;;;;;;10.35;6.43;;;;;;;19.84;42.46;103037.47;5054728;28;20057;-78
2022/03/26 02:39:43;;;;;;;12.95;7.13;;;;;;;19.82;42.28;103044.66;5053396;28;20057;-77
2022/03/26 02:42:09;;;;;;;13.13;7.40;;;;;;;19.81;42.38;103047.38;5054213;28;20036;-77
2022/03/26 02:44:34;;;;;;;10.57;7.00;;;;;;;19.80;42.54;103045.66;5054138;28;20029;-77
2022/03/26 02:47:00;;;;;;;11.30;7.00;;;;;;;19.78;42.39;103045.72;5053583;28;20025;-78
2022/03/26 02:49:25;;;;;;;10.65;7.00;;;;;;;19.76;42.37;103042.31;5054385;28;20270;-78
2022/03/26 02:51:51;;;;;;;10.02;6.47;;;;;;;19.76;42.48;103044.97;5053961;28;20036;-77
2022/03/26 02:54:19;;;;;;;10.55;6.95;;;;;;;19.74;42.47;103041.50;5053386;28;20021;-77
2022/03/26 02:56:48;;;;;;;10.45;6.80;;;;;;;19.75;42.59;103037.91;5054077;28;20024;-77
2022/03/26 02:59:14;;;;;;;10.93;6.82;;;;;;;19.75;42.20;103044.06;5054257;28;20372;-78
2022/03/26 03:01:40;;;;;;;13.00;7.35;;;;;;;19.73;42.39;103040.66;5052857;28;20029;-77
2022/03/26 03:04:05;;;;;;;13.18;7.55;;;;;;;19.73;42.38;103037.16;5054082;28;20025;-77
2022/03/26 03:06:31;;;;;;;9.85;6.07;;;;;;;19.72;42.39;103028.34;5053939;28;20027;-76
2022/03/26 03:08:57;;;;;;;10.90;6.95;;;;;;;19.72;42.30;103036.28;5053007;28;20032;-77
2022/03/26 03:11:22;;;;;;;12.45;7.60;;;;;;;19.71;42.39;103041.66;5053674;28;20018;-77
2022/03/26 03:13:48;;;;;;;10.82;6.60;;;;;;;19.71;42.12;103044.31;5052899;28;20076;-77
2022/03/26 03:16:13;;;;;;;12.80;7.03;;;;;;;19.65;42.50;103042.84;5053925;28;20021;-77
2022/03/26 03:18:38;;;;;;;10.60;6.60;;;;;;;19.65;42.43;103042.84;5053392;28;20448;-77
2022/03/26 03:21:04;;;;;;;12.40;7.32;;;;;;;19.65;42.43;103048.16;5052929;28;20273;-77
2022/03/26 03:23:29;;;;;;;10.73;8.13;;;;;;;19.65;42.46;103049.94;5053620;28;20075;-77
2022/03/26 03:25:54;;;;;;;10.50;6.63;;;;;;;19.64;42.38;103050.88;5053222;28;20277;-77
2022/03/26 03:28:19;;;;;;;12.67;7.33;;;;;;;19.63;42.24;103049.16;5052907;28;20033;-77
2022/03/26 03:30:45;;;;;;;10.97;6.77;;;;;;;19.61;42.40;103041.28;5053294;28;20021;-77
2022/03/26 03:33:10;;;;;;;14.00;7.40;;;;;;;19.59;42.35;103035.25;5053509;28;20269;-78
2022/03/26 03:35:36;;;;;;;11.83;6.83;;;;;;;19.56;42.29;103038.91;5052360;28;20025;-77
2022/03/26 03:38:01;;;;;;;11.75;7.05;;;;;;;19.60;42.38;103041.38;5053180;28;20305;-77
2022/03/26 03:40:26;;;;;;;10.55;6.50;;;;;;;19.53;42.26;103033.75;5053220;28;20028;-77
2022/03/26 03:42:54;;;;;;;11.23;7.28;;;;;;;19.55;42.28;103039.84;5051982;28;20071;-76
2022/03/26 03:45:20;;;;;;;11.48;6.90;;;;;;;19.54;42.19;103034.63;5053200;28;20056;-77
2022/03/26 03:47:46;;;;;;;11.32;6.45;;;;;;;19.53;42.26;103041.69;5053018;28;20055;-77
2022/03/26 03:50:11;;;;;;;12.27;7.13;;;;;;;19.53;42.58;103043.50;5052882;28;20048;-77
2022/03/26 03:52:37;;;;;;;11.70;6.88;;;;;;;19.50;42.40;103039.25;5052709;28;20389;-77
2022/03/26 03:55:03;;;;;;;10.63;6.93;;;;;;;19.51;42.28;103042.72;5053117;28;20025;-77
2022/03/26 03:57:28;;;;;;;11.30;7.13;;;;;;;19.51;42.33;103050.66;5052165;28;20460;-77
2022/03/26 03:59:53;;;;;;;10.73;7.17;;;;;;;19.49;42.19;103048.09;5052885;28;20053;-77
2022/03/26 04:02:18;;;;;;;13.27;7.47;;;;;;;19.47;42.22;103052.63;5052518;28;20653;-77
2022/03/26 04:04:44;;;;;;;11.60;7.10;;;;;;;19.49;42.33;103056.03;5052098;28;20633;-77
2022/03/26 04:07:09;;;;;;;12.13;7.25;;;;;;;19.49;42.29;103058.69;5053011;28;20472;-77
2022/03/26 04:09:36;;;;;;;10.93;6.53;;;;;;;19.49;42.27;103058.69;5052658;28;20063;-77
2022/03/26 04:12:01;;;;;;;12.00;7.65;;;;;;;19.48;42.42;103061.41;5052545;28;20434;-77
2022/03/26 04:14:27;;;;;;;10.20;6.97;;;;;;;19.46;42.23;103061.47;5053164;28;20504;-77
2022/03/26 04:16:53;;;;;;;10.77;7.15;;;;;;;19.43;42.45;103056.34;5052696;28;20528;-77
2022/03/26 04:19:18;;;;;;;10.35;6.88;;;;;;;19.42;42.36;103064.38;5052368;28;20040;-76
2022/03/26 04:21:44;;;;;;;9.67;6.07;;;;;;;19.42;42.50;103061.72;5052349;28;20090;-76
2022/03/26 04:24:10;;;;;;;11.93;7.32;;;;;;;19.41;42.46;103055.59;5052032;28;20274;-77
2022/03/26 04:26:35;;;;;;;10.35;6.82;;;;;;;19.43;42.29;103063.44;5052352;28;20017;-77
2022/03/26 04:29:01;;;;;;;12.88;7.63;;;;;;;19.42;42.51;103065.22;5052767;28;20051;-76
2022/03/26 04:31:26;;;;;;;11.57;6.88;;;;;;;19.43;42.05;103056.34;5051894;28;20522;-77
2022/03/26 04:33:51;;;;;;;12.03;7.03;;;;;;;19.40;41.95;103057.34;5052463;28;20033;-76
2022/03/26 04:36:17;;;;;;;11.77;7.10;;;;;;;19.39;42.11;103060.97;5052606;28;20278;-77
2022/03/26 04:38:42;;;;;;;13.25;7.35;;;;;;;19.38;42.03;103059.22;5051526;28;20025;-76
2022/03/26 04:41:08;;;;;;;10.63;7.00;;;;;;;19.38;42.35;103067.16;5052724;28;20079;-78
2022/03/26 04:43:34;;;;;;;9.80;6.65;;;;;;;19.37;42.26;103054.88;5052692;28;20025;-77
2022/03/26 04:45:59;;;;;;;10.75;6.57;;;;;;;19.37;42.26;103056.66;5052333;28;20433;-77
2022/03/26 04:48:24;;;;;;;10.43;7.22;;;;;;;19.36;42.04;103047.03;5052744;28;20074;-77
2022/03/26 04:50:50;;;;;;;10.13;6.73;;;;;;;19.37;42.18;103056.66;5052430;28;20063;-77
2022/03/26 04:53:15;;;;;;;11.07;7.00;;;;;;;19.31;42.02;103049.06;5051933;28;20274;-77
2022/03/26 04:55:40;;;;;;;13.03;7.20;;;;;;;19.32;42.18;103056.91;5052598;28;20048;-77
2022/03/26 04:58:06;;;;;;;13.13;6.65;;;;;;;19.31;42.16;103057.84;5052500;28;20281;-78
2022/03/26 05:00:31;;;;;;;11.52;7.00;;;;;;;19.31;42.32;103054.34;5051796;28;20560;-78
2022/03/26 05:02:57;;;;;;;12.95;7.05;;;;;;;19.28;42.39;103060.66;5051944;28;20033;-77
2022/03/26 05:05:22;;;;;;;10.93;6.88;;;;;;;19.25;42.27;103052.88;5052272;28;20051;-77
2022/03/26 05:07:47;;;;;;;11.88;6.70;;;;;;;19.25;42.09;103049.34;5051198;28;20021;-77
2022/03/26 05:10:14;;;;;;;10.70;6.35;;;;;;;19.24;42.11;103053.81;5052146;28;20021;-77
2022/03/26 05:12:41;;;;;;;11.15;6.72;;;;;;;19.25;42.11;103052.88;5051877;28;20457;-77
2022/03/26 05:15:06;;;;;;;13.23;7.20;;;;;;;19.24;42.22;103053.81;5054638;28;20028;-77
2022/03/26 05:17:32;;;;;;;11.43;6.80;;;;;;;19.24;42.18;103053.81;5056034;28;20023;-77
2022/03/26 05:19:57;;;;;;;11.82;6.63;;;;;;;19.24;42.23;103058.25;5055617;28;20059;-78
2022/03/26 05:22:22;;;;;;;12.03;7.10;;;;;;;19.24;41.93;103058.25;5055075;28;20029;-78
2022/03/26 05:24:47;;;;;;;11.43;6.75;;;;;;;19.23;42.01;103065.31;5055580;28;20277;-77
2022/03/26 05:27:12;;;;;;;10.47;6.73;;;;;;;19.24;41.86;103064.38;5056080;28;20021;-78
2022/03/26 05:29:38;;;;;;;11.07;6.83;;;;;;;19.24;41.99;103067.03;5055012;28;20273;-77
2022/03/26 05:32:04;;;;;;;12.93;7.22;;;;;;;19.20;41.62;103068.09;5055760;28;20270;-78
2022/03/26 05:34:29;;;;;;;12.18;6.82;;;;;;;19.19;41.46;103076.97;5054985;28;20037;-78
2022/03/26 05:36:54;;;;;;;11.07;7.05;;;;;;;19.18;41.41;103069.97;5055302;28;20021;-76
2022/03/26 05:39:20;;;;;;;11.77;6.68;;;;;;;19.21;41.38;103075.94;5055502;28;20036;-76
2022/03/26 05:41:45;;;;;;;9.73;6.60;;;;;;;19.24;41.33;103077.59;5054614;28;20036;-77
2022/03/26 05:44:10;;;;;;;13.60;7.45;;;;;;;19.27;41.02;103082.72;5055676;28;20025;-77
2022/03/26 05:46:36;;;;;;;9.70;6.40;;;;;;;19.30;40.86;103079.94;5055326;28;20028;-77
2022/03/26 05:49:02;;;;;;;11.70;6.40;;;;;;;19.34;40.97;103083.25;5054813;28;20059;-78
2022/03/26 05:51:28;;;;;;;9.38;6.47;;;;;;;19.37;40.85;103093.69;5055672;28;20444;-77
2022/03/26 05:53:53;;;;;;;11.52;6.50;;;;;;;19.35;40.72;103091.13;5054941;28;20112;-77
2022/03/26 05:56:18;;;;;;;10.27;6.23;;;;;;;19.40;40.61;103098.81;5054707;28;20111;-77
2022/03/26 05:58:43;;;;;;;9.57;6.40;;;;;;;19.42;40.73;103096.09;5054873;28;20159;-77
2022/03/26 06:01:09;;;;;;;11.38;6.10;;;;;;;19.42;40.61;103099.59;5055352;28;20344;-78
2022/03/26 06:03:34;;;;;;;10.10;6.03;;;;;;;19.44;40.53;103110.09;5054179;28;20021;-77
2022/03/26 06:05:59;;;;;;;11.13;6.90;;;;;;;19.45;40.71;103119.75;5055197;28;20394;-77
2022/03/26 06:08:24;;;;;;;9.27;6.25;;;;;;;19.44;40.38;103118.00;5054888;28;20357;-78
2022/03/26 06:10:50;;;;;;;10.33;6.07;;;;;;;19.44;40.34;103110.09;5054155;28;20032;-78
2022/03/26 06:13:15;;;;;;;9.63;6.70;;;;;;;19.47;41.07;103118.75;5054832;28;20291;-77
2022/03/26 06:15:42;;;;;;;9.30;5.80;;;;;;;19.49;41.75;103116.88;5054829;28;20704;-78
2022/03/26 06:18:08;;;;;;;11.05;6.38;;;;;;;19.53;42.20;103113.09;5054049;28;20344;-78
2022/03/26 06:20:33;;;;;;;10.93;6.13;;;;;;;19.55;42.64;103115.69;5054696;28;20087;-77
2022/03/26 06:22:59;;;;;;;10.40;6.30;;;;;;;19.59;42.61;103114.59;5054749;28;20132;-77
2022/03/26 06:25:24;;;;;;;9.60;5.82;;;;;;;19.62;42.53;103100.38;5053556;28;20036;-77
2022/03/26 06:27:50;;;;;;;11.20;6.07;;;;;;;19.65;42.81;103105.50;5054544;28;20021;-78
2022/03/26 06:30:16;;;;;;;9.25;5.63;;;;;;;19.67;42.53;103111.56;5054598;28;20457;-77
2022/03/26 06:32:42;;;;;;;8.48;5.40;;;;;;;19.69;42.71;103121.13;5053760;28;20116;-76
2022/03/26 06:35:07;;;;;;;9.50;5.00;;;;;;;19.71;42.82;103118.38;5054571;28;20060;-78
2022/03/26 06:37:33;;;;;;;7.47;4.68;;;;;;;19.73;42.68;103117.38;5054242;28;20028;-78
2022/03/26 06:39:58;;;;;;;9.27;4.95;;;;;;;19.76;42.64;103116.41;5054097;28;20032;-77
2022/03/26 06:42:25;;;;;;;7.80;5.10;;;;;;;19.83;42.74;103115.13;5054458;28;20025;-74
2022/03/26 06:44:51;;;;;;;9.35;5.18;;;;;;;19.90;42.58;103123.59;5053447;28;20053;-76
2022/03/26 06:47:16;;;;;;;9.25;4.80;;;;;;;19.95;42.43;103129.50;5054344;28;20059;-74
2022/03/26 06:49:42;;;;;;;7.83;4.80;;;;;;;19.99;42.46;103132.84;5054135;28;20020;-74
2022/03/26 06:52:08;;;;;;;9.40;4.93;;;;;;;20.03;42.51;103129.09;5053503;28;20277;-74
2022/03/26 06:54:33;;;;;;;9.45;4.70;;;;;;;20.06;42.30;103132.44;5053765;28;20032;-73
2022/03/26 06:56:58;;;;;;;8.82;4.97;;;;;;;20.07;42.57;103138.59;5054029;28;20036;-77
2022/03/26 06:59:24;;;;;;;9.18;5.50;;;;;;;20.06;41.42;103136.84;5053443;28;20107;-78
2022/03/26 07:01:52;;;;;;;10.07;5.17;;;;;;;20.06;42.15;103139.50;5053976;28;20036;-77
2022/03/26 07:04:17;;;;;;;9.02;5.50;;;;;;;20.05;42.36;103135.16;5053993;28;20303;-77
2022/03/26 07:06:43;;;;;;;10.30;5.10;;;;;;;20.05;42.16;103136.00;5053033;28;20029;-78
2022/03/26 07:09:08;;;;;;;8.73;5.23;;;;;;;20.06;42.31;103136.84;5053809;28;20104;-77
2022/03/26 07:11:33;;;;;;;9.18;4.60;;;;;;;20.04;42.33;103147.53;5053686;28;20309;-76
2022/03/26 07:13:58;;;;;;;10.93;5.07;;;;;;;20.02;42.47;103144.13;5053157;28;20127;-77
2022/03/26 07:16:24;;;;;;;11.03;5.30;;;;;;;20.01;42.48;103145.06;5053824;28;20815;-74
2022/03/26 07:18:49;;;;;;;10.90;5.63;;;;;;;20.02;41.83;103148.56;5053763;28;20300;-79
2022/03/26 07:21:14;;;;;;;12.10;5.87;;;;;;;20.02;42.24;103144.13;5052910;28;20365;-73
2022/03/26 07:23:39;;;;;;;7.67;4.80;;;;;;;20.02;42.64;103148.56;5054849;28;20029;-77
2022/03/26 07:26:05;;;;;;;9.65;5.13;;;;;;;20.01;42.02;103145.06;5053849;28;20265;-66
2022/03/26 07:28:30;;;;;;;9.70;5.22;;;;;;;20.02;42.37;103144.13;5053356;28;20472;-73
2022/03/26 07:30:55;;;;;;;10.98;4.85;;;;;;;20.03;42.45;103145.00;5053213;28;20028;-73
2022/03/26 07:33:20;;;;;;;9.43;5.25;;;;;;;20.05;42.69;103146.59;5053525;28;20111;-73
2022/03/26 07:35:46;;;;;;;7.72;4.65;;;;;;;20.05;42.73;103148.41;5052576;28;20013;-75
2022/03/26 07:38:12;;;;;;;8.07;4.77;;;;;;;20.05;42.76;103151.91;5052498;28;20036;-67
2022/03/26 07:40:37;;;;;;;9.13;5.28;;;;;;;20.06;42.20;103150.97;5053130;28;20288;-68
2022/03/26 07:43:02;;;;;;;9.32;5.47;;;;;;;20.07;42.47;103147.38;5052555;28;20037;-68
2022/03/26 07:45:28;;;;;;;8.35;4.50;;;;;;;20.09;42.84;103156.09;5053195;28;20017;-69
2022/03/26 07:47:53;;;;;;;7.20;5.00;;;;;;;20.11;43.16;103161.31;5052837;28;20035;-70
2022/03/26 07:50:18;;;;;;;9.75;5.03;;;;;;;20.11;43.10;103166.63;5052426;28;20087;-73
2022/03/26 07:52:44;;;;;;;9.00;4.53;;;;;;;20.12;43.27;103152.41;5052885;28;20025;-75
2022/03/26 07:55:10;;;;;;;8.18;5.00;;;;;;;20.16;43.05;103161.06;5052426;28;20025;-75
2022/03/26 07:57:36;;;;;;;9.40;4.82;;;;;;;20.19;43.30;103163.56;5053071;28;20431;-72
2022/03/26 08:00:01;;;;;;;9.48;4.93;;;;;;;20.22;43.22;103158.06;5053104;28;20024;-77
2022/03/26 08:02:26;;;;;;;10.23;5.22;;;;;;;20.22;43.25;103164.25;5052197;28;20052;-74
2022/03/26 08:04:51;;;;;;;11.90;5.43;;;;;;;20.22;43.30;103166.00;5052893;28;20036;-80
2022/03/26 08:07:17;;;;;;;8.65;5.10;;;;;;;20.24;43.35;103161.50;5053332;28;20343;-79
2022/03/26 08:09:42;;;;;;;10.60;5.38;;;;;;;20.29;43.18;103164.75;5052501;28;20024;-79
2022/03/26 08:12:08;;;;;;;9.67;4.90;;;;;;;20.35;43.17;103166.22;5053693;28;20017;-76
2022/03/26 08:14:34;;;;;;;10.90;5.47;;;;;;;20.36;43.29;103166.16;5053172;28;20365;-80
2022/03/26 08:17:00;;;;;;;9.23;5.05;;;;;;;20.42;43.18;103168.44;5052439;28;20043;-75
2022/03/26 08:19:27;;;;;;;8.38;5.60;;;;;;;20.45;43.15;103164.78;5052955;28;20108;-82
2022/03/26 08:21:59;;;;;;;7.85;4.85;;;;;;;20.48;43.11;103168.09;5053657;28;20212;-79
2022/03/26 08:24:27;;;;;;;7.65;5.03;;;;;;;20.52;43.23;103166.16;5054233;28;20025;-78
2022/03/26 08:26:57;;;;;;;10.77;5.18;;;;;;;20.56;43.17;103166.84;5053168;28;20032;-78
2022/03/26 08:29:23;;;;;;;9.10;4.72;;;;;;;20.55;43.57;103173.91;5054022;28;20380;-78
2022/03/26 08:31:49;;;;;;;9.55;5.22;;;;;;;20.57;43.29;103173.81;5052875;28;20021;-79
2022/03/26 08:34:18;;;;;;;9.45;4.88;;;;;;;20.54;43.59;103174.88;5054121;28;20021;-78
2022/03/26 08:36:44;;;;;;;9.88;4.93;;;;;;;20.55;43.21;103167.78;5054081;28;20049;-77
2022/03/26 08:39:09;;;;;;;9.95;5.07;;;;;;;20.56;43.63;103174.78;5054567;28;20040;-75
2022/03/26 08:41:34;;;;;;;9.52;5.20;;;;;;;20.55;43.70;103173.06;5055054;28;20487;-76
2022/03/26 08:43:59;;;;;;;10.18;5.07;;;;;;;20.56;43.69;103175.63;5054583;28;20056;-76
2022/03/26 08:46:25;;;;;;;10.37;4.93;;;;;;;20.56;43.42;103170.34;5053407;28;20087;-76
2022/03/26 08:48:51;;;;;;;8.63;4.80;;;;;;;20.61;43.79;103176.22;5053252;28;20059;-77
2022/03/26 08:51:17;;;;;;;8.93;5.15;;;;;;;20.63;43.55;103181.44;5056369;28;20021;-77
2022/03/26 08:53:42;;;;;;;9.60;5.25;;;;;;;20.66;43.55;103170.72;5056471;28;20025;-77
2022/03/26 08:56:08;;;;;;;10.30;4.70;;;;;;;20.64;43.46;103168.16;5057014;28;20024;-76
2022/03/26 08:58:35;;;;;;;8.27;4.45;;;;;;;20.64;43.80;103185.84;5055379;28;20039;-77
2022/03/26 09:01:00;;;;;;;9.55;5.50;;;;;;;20.63;43.87;103178.78;5056693;28;20024;-79
2022/03/26 09:03:26;;;;;;;10.48;4.90;;;;;;;20.65;43.56;103172.50;5056844;28;20017;-78
2022/03/26 09:05:52;;;;;;;8.43;5.00;;;;;;;20.68;43.48;103184.75;5055509;28;20021;-77
2022/03/26 09:08:18;;;;;;;8.25;4.78;;;;;;;20.70;43.48;103179.38;5057683;28;20025;-79
2022/03/26 09:10:44;;;;;;;8.95;4.78;;;;;;;20.70;43.50;103180.22;5056707;28;20035;-77
2022/03/26 09:13:10;;;;;;;10.70;4.88;;;;;;;20.72;43.61;103180.13;5055902;28;20103;-80
2022/03/26 09:15:35;;;;;;;10.68;4.97;;;;;;;20.72;43.49;103183.63;5056910;28;20021;-78
2022/03/26 09:18:00;;;;;;;8.50;5.45;;;;;;;20.71;43.40;103184.56;5057196;28;20021;-78
2022/03/26 09:20:26;;;;;;;8.02;4.40;;;;;;;20.74;43.39;103187.03;5055393;28;20013;-77
2022/03/26 09:22:52;;;;;;;9.88;4.93;;;;;;;20.75;43.46;103191.41;5055515;28;20386;-77
2022/03/26 09:25:18;;;;;;;8.60;5.22;;;;;;;20.75;43.52;103186.09;5055965;28;20021;-77
2022/03/26 09:27:44;;;;;;;9.38;5.20;;;;;;;20.75;43.51;103186.09;5054622;28;20353;-76
2022/03/26 09:30:10;;;;;;;11.52;5.00;;;;;;;20.76;43.57;103192.25;5055696;28;20028;-75
2022/03/26 09:32:35;;;;;;;8.52;5.35;;;;;;;20.76;43.83;103186.94;5055429;28;20040;-74
2022/03/26 09:35:00;;;;;;;7.10;4.47;;;;;;;20.76;43.73;103190.47;5055453;28;20032;-76
2022/03/26 09:37:25;;;;;;;9.05;5.15;;;;;;;20.76;43.72;103187.81;5056051;28;20629;-74
2022/03/26 09:39:51;;;;;;;10.23;5.28;;;;;;;20.76;43.59;103184.28;5055421;28;20428;-76
2022/03/26 09:42:16;;;;;;;9.60;4.97;;;;;;;20.78;43.71;103188.56;5055007;28;20039;-77
2022/03/26 09:44:41;;;;;;;9.85;4.53;;;;;;;20.79;43.98;103184.13;5055279;28;20055;-77
2022/03/26 09:47:08;;;;;;;7.85;5.00;;;;;;;20.78;44.03;103179.78;5055438;28;20025;-73
2022/03/26 09:49:34;;;;;;;11.13;4.72;;;;;;;20.79;43.96;103185.00;5054702;28;20029;-76
2022/03/26 09:52:00;;;;;;;7.95;4.60;;;;;;;20.78;43.95;103180.63;5056154;28;20456;-73
2022/03/26 09:54:26;;;;;;;9.65;4.93;;;;;;;20.79;44.01;103178.81;5055543;28;20099;-77
2022/03/26 09:56:51;;;;;;;8.65;4.47;;;;;;;20.75;44.01;103175.50;5054280;28;20031;-75
2022/03/26 09:59:21;;;;;;;9.68;4.57;;;;;;;20.79;44.26;103176.19;5055319;28;20021;-77
2022/03/26 10:01:46;;;;;;;8.30;4.80;;;;;;;20.78;44.12;103175.34;5053324;28;20090;-76
2022/03/26 10:04:16;;;;;;;9.38;4.55;;;;;;;20.79;44.19;103177.06;5055771;28;20411;-76
2022/03/26 10:06:51;;;;;;;7.85;4.57;;;;;;;20.80;44.44;103177.91;5054810;28;20581;-74
2022/03/26 10:09:35;;;;;;;8.48;4.80;;;;;;;20.79;44.22;103182.34;5054286;28;20036;-75
2022/03/26 10:12:04;;;;;;;9.63;4.85;;;;;;;20.79;44.36;103174.41;5055171;28;20074;-76
2022/03/26 10:14:41;;;;;;;7.85;4.60;;;;;;;20.79;44.66;103177.06;5054960;28;20047;-76
2022/03/26 10:17:10;;;;;;;9.45;4.72;;;;;;;20.80;44.53;103175.25;5054759;28;20035;-76
2022/03/26 10:19:36;;;;;;;10.43;4.90;;;;;;;20.78;44.79;103177.97;5054779;28;20357;-74
2022/03/26 10:22:01;;;;;;;9.43;4.97;;;;;;;20.80;44.65;103181.38;5054574;28;20025;-75
2022/03/26 10:24:28;;;;;;;9.48;5.20;;;;;;;20.81;44.64;103180.47;5054101;28;20108;-68
2022/03/26 10:26:54;;;;;;;9.40;5.00;;;;;;;20.82;44.95;103176.00;5054588;28;20057;-70
2022/03/26 10:29:19;;;;;;;9.00;4.87;;;;;;;20.83;44.54;103180.38;5054788;28;20032;-71
2022/03/26 10:34:28;;;;;;;9.23;5.10;;;;;;;20.84;44.94;103175.00;5055603;28;20027;-77
2022/03/26 10:36:53;;;;;;;9.03;5.00;;;;;;;20.84;45.38;103171.50;5056563;28;20068;-75
2022/03/26 10:39:24;;;;;;;10.33;4.57;;;;;;;20.84;44.90;103172.34;5057020;28;20289;-72
2022/03/26 10:41:52;;;;;;;6.85;4.60;;;;;;;20.86;45.25;103171.41;5054252;28;20033;-76
2022/03/26 10:44:19;;;;;;;12.15;4.72;;;;;;;20.85;45.10;103173.19;5053908;28;20052;-73
2022/03/26 10:46:47;;;;;;;9.57;5.05;;;;;;;20.87;45.11;103173.09;5054436;28;20045;-74
2022/03/26 10:49:34;;;;;;;7.45;4.43;;;;;;;20.88;45.42;103169.53;5055083;28;20032;-74
2022/03/26 10:52:15;;;;;;;10.60;5.05;;;;;;;20.94;45.55;103170.03;5053800;28;20052;-76
2022/03/26 10:54:41;;;;;;;9.07;4.78;;;;;;;21.03;45.69;103163.34;5054092;28;20392;-69
2022/03/26 10:57:08;;;;;;;13.07;5.20;;;;;;;21.11;45.79;103160.22;5054187;28;20029;-68
2022/03/26 10:59:33;;;;;;;11.48;6.00;;;;;;;21.16;45.74;103161.69;5053428;28;20017;-68
2022/03/26 11:01:59;;;;;;;11.18;4.80;;;;;;;21.20;45.62;103159.72;5053990;28;20496;-67
2022/03/26 11:04:30;;;;;;;11.35;5.10;;;;;;;21.23;45.75;103154.22;5054266;28;20112;-72
2022/03/26 11:06:57;;;;;;;11.18;5.10;;;;;;;21.26;45.44;103156.69;5053123;28;20028;-69
2022/03/26 11:09:22;;;;;;;9.32;6.25;;;;;;;21.28;45.72;103154.81;5053996;28;20021;-70
2022/03/26 11:11:49;;;;;;;12.10;4.70;;;;;;;21.29;45.72;103156.53;5053767;28;20376;-71
2022/03/26 11:14:20;;;;;;;8.85;4.53;;;;;;;21.32;45.87;103160.81;5053157;28;20045;-75
2022/03/26 11:16:48;;;;;;;11.05;5.38;;;;;;;21.35;46.01;103163.28;5053575;28;20025;-73